Time;durP1;ratioP1;P1;durP2;ratioP2;P2;SDS_P1;SDS_P2;PMS_P1;PMS_P2;Temp;Humidity;BMP_temperature;BMP_pressure;BME280_temperature;BME280_humidity;BME280_pressure;Samples;Min_cycle;Max_cycle;Signal;HPM_P1;HPM_P2
2022/11/11 00:01:16;;;;;;;;;;;6.30;99.90;;;;;;5024925;28;19924;-47
2022/11/11 00:03:42;;;;;;;;;;;6.30;99.90;;;;;;5008775;28;20331;-50
2022/11/11 00:06:09;;;;;;;;;;;6.30;99.90;;;;;;5019836;28;19918;-44
2022/11/11 00:08:34;;;;;;;;;;;6.20;99.90;;;;;;5019532;28;19913;-49
2022/11/11 00:11:01;;;;;;;;;;;6.30;99.90;;;;;;5018198;28;19921;-46
2022/11/11 00:13:27;;;;;;;;;;;6.30;99.90;;;;;;5008747;28;19918;-46
2022/11/11 00:15:53;;;;;;;;;;;6.20;99.90;;;;;;5013245;28;19917;-47
2022/11/11 00:26:31;;;;;;;;;;;6.30;99.90;;;;;;5008631;28;20451;-48
2022/11/11 00:28:56;;;;;;;;;;;6.30;99.90;;;;;;5007366;28;19996;-46
2022/11/11 00:31:22;;;;;;;;;;;6.30;99.90;;;;;;5008777;28;19945;-48
2022/11/11 00:33:47;;;;;;;;;;;6.30;99.90;;;;;;5022023;28;20390;-47
2022/11/11 00:36:13;;;;;;;;;;;6.30;99.90;;;;;;5011363;28;20352;-48
2022/11/11 00:38:46;;;;;;;;;;;6.20;99.90;;;;;;5025195;28;19939;-47
2022/11/11 00:41:15;;;;;;;;;;;6.20;99.90;;;;;;5016202;28;19913;-47
2022/11/11 00:43:41;;;;;;;;;;;6.20;99.90;;;;;;5025557;28;19917;-45
2022/11/11 00:51:35;;;;;;;;;;;6.20;99.90;;;;;;5013555;28;20383;-45
2022/11/11 00:54:01;;;;;;;;;;;6.20;99.90;;;;;;5014669;28;19917;-46
2022/11/11 00:56:27;;;;;;;;;;;6.10;99.90;;;;;;5011727;28;19992;-49
2022/11/11 00:58:52;;;;;;;;;;;6.10;99.90;;;;;;5023352;28;20008;-49
2022/11/11 01:01:18;;;;;;;;;;;6.10;99.90;;;;;;5023531;28;20219;-49
2022/11/11 01:03:44;;;;;;;;;;;6.00;99.90;;;;;;5021285;28;20348;-49
2022/11/11 01:06:11;;;;;;;;;;;6.00;99.90;;;;;;5031038;28;19917;-52
2022/11/11 01:08:36;;;;;;;;;;;6.00;99.90;;;;;;5018236;28;20426;-48
2022/11/11 01:11:02;;;;;;;;;;;5.90;99.90;;;;;;5013583;28;19937;-46
2022/11/11 01:13:29;;;;;;;;;;;5.90;99.90;;;;;;5029929;28;19913;-48
2022/11/11 01:15:59;;;;;;;;;;;5.90;99.90;;;;;;5012505;28;19917;-49
2022/11/11 01:18:25;;;;;;;;;;;5.90;99.90;;;;;;5014044;28;20012;-48
2022/11/11 01:21:01;;;;;;;;;;;5.90;99.90;;;;;;5026980;28;20036;-51
2022/11/11 01:23:27;;;;;;;;;;;5.90;99.90;;;;;;5016865;28;19917;-49
2022/11/11 01:25:53;;;;;;;;;;;5.90;99.90;;;;;;5015305;28;19949;-46
2022/11/11 01:28:18;;;;;;;;;;;5.80;99.90;;;;;;5017594;28;19917;-46
2022/11/11 01:30:43;;;;;;;;;;;5.80;99.90;;;;;;5016936;28;19913;-46
2022/11/11 01:33:10;;;;;;;;;;;5.80;99.90;;;;;;5030635;28;19953;-45
2022/11/11 01:35:39;;;;;;;;;;;5.80;99.90;;;;;;5011403;28;19920;-49
2022/11/11 01:38:06;;;;;;;;;;;5.70;99.90;;;;;;5016767;28;19917;-51
2022/11/11 01:40:38;;;;;;;;;;;5.70;99.90;;;;;;5030434;28;19920;-46
2022/11/11 01:43:04;;;;;;;;;;;5.70;99.90;;;;;;5029546;28;19917;-46
2022/11/11 01:45:47;;;;;;;;;;;5.70;99.90;;;;;;5011474;28;19928;-48
2022/11/11 01:51:31;;;;;;;;;;;5.70;99.90;;;;;;5023601;28;20042;-46
2022/11/11 01:53:59;;;;;;;;;;;5.70;99.90;;;;;;5015335;28;19961;-47
2022/11/11 01:56:25;;;;;;;;;;;5.60;99.90;;;;;;5017570;28;19917;-48
2022/11/11 01:58:51;;;;;;;;;;;5.60;99.90;;;;;;5010827;28;20284;-46
2022/11/11 02:01:17;;;;;;;;;;;5.60;99.90;;;;;;5011075;28;19909;-49
2022/11/11 02:05:40;;;;;;;;;;;5.60;99.90;;;;;;5014349;28;19928;-45
2022/11/11 02:06:29;;;;;;;;;;;5.60;99.90;;;;;;5020883;28;19992;-46
2022/11/11 02:08:55;;;;;;;;;;;5.60;99.90;;;;;;5018068;28;19913;-46
2022/11/11 02:14:35;;;;;;;;;;;5.50;99.90;;;;;;5008816;28;19956;-45
2022/11/11 02:17:04;;;;;;;;;;;5.50;99.90;;;;;;5028821;28;19960;-49
2022/11/11 02:19:48;;;;;;;;;;;5.50;99.90;;;;;;5012755;28;19917;-46
2022/11/11 02:22:37;;;;;;;;;;;5.40;99.90;;;;;;5017228;28;19987;-45
2022/11/11 02:25:04;;;;;;;;;;;5.40;99.90;;;;;;5023556;28;20205;-51
2022/11/11 02:27:30;;;;;;;;;;;5.40;99.90;;;;;;5011301;28;20050;-48
2022/11/11 02:29:57;;;;;;;;;;;5.40;99.90;;;;;;5011913;28;19913;-46
2022/11/11 02:32:22;;;;;;;;;;;5.40;99.90;;;;;;5025693;28;19920;-45
2022/11/11 02:34:48;;;;;;;;;;;5.40;99.90;;;;;;5013491;28;19917;-45
2022/11/11 02:37:16;;;;;;;;;;;5.40;99.90;;;;;;5016203;28;19917;-47
2022/11/11 02:39:43;;;;;;;;;;;5.40;99.90;;;;;;5010182;28;19913;-47
2022/11/11 02:42:09;;;;;;;;;;;5.40;99.90;;;;;;5011990;28;19914;-46
2022/11/11 02:44:36;;;;;;;;;;;5.50;99.90;;;;;;5029927;28;20245;-44
2022/11/11 02:47:02;;;;;;;;;;;5.50;99.90;;;;;;5022885;28;19917;-50
2022/11/11 02:49:28;;;;;;;;;;;5.40;99.90;;;;;;5022979;28;19935;-47
2022/11/11 02:51:53;;;;;;;;;;;5.50;99.90;;;;;;5029138;28;19917;-46
2022/11/11 02:54:19;;;;;;;;;;;5.50;99.90;;;;;;5044206;28;19952;-53
2022/11/11 02:59:28;;;;;;;;;;;5.50;99.90;;;;;;5015360;28;19923;-47
2022/11/11 03:01:54;;;;;;;;;;;5.40;99.90;;;;;;5028783;28;19913;-50
2022/11/11 03:04:19;;;;;;;;;;;5.40;99.90;;;;;;5010775;28;19928;-45
2022/11/11 03:06:45;;;;;;;;;;;5.50;99.90;;;;;;5025066;28;20004;-49
2022/11/11 03:09:10;;;;;;;;;;;5.50;99.90;;;;;;5009686;28;19913;-47
2022/11/11 03:11:37;;;;;;;;;;;5.50;99.90;;;;;;5008577;28;20328;-46
2022/11/11 03:14:03;;;;;;;;;;;5.40;99.90;;;;;;5019956;28;19924;-50
2022/11/11 03:19:12;;;;;;;;;;;5.40;99.90;;;;;;5018737;28;19960;-47
2022/11/11 03:21:38;;;;;;;;;;;5.40;99.90;;;;;;5021638;28;19921;-49
2022/11/11 03:24:03;;;;;;;;;;;5.40;99.90;;;;;;5010909;28;19965;-46
2022/11/11 03:26:29;;;;;;;;;;;5.40;99.90;;;;;;5019408;28;19928;-46
2022/11/11 03:28:54;;;;;;;;;;;5.40;99.90;;;;;;5008500;28;19914;-46
2022/11/11 03:31:20;;;;;;;;;;;5.40;99.90;;;;;;5026460;28;20385;-46
2022/11/11 03:33:45;;;;;;;;;;;5.40;99.90;;;;;;5028195;28;19918;-45
2022/11/11 03:36:11;;;;;;;;;;;5.40;99.90;;;;;;5010920;28;20020;-45
2022/11/11 03:38:36;;;;;;;;;;;5.40;99.90;;;;;;5023578;28;19921;-47
2022/11/11 03:41:02;;;;;;;;;;;5.40;99.90;;;;;;5019344;28;20368;-53
2022/11/11 03:43:29;;;;;;;;;;;5.40;99.90;;;;;;5031937;28;20036;-45
2022/11/11 03:45:55;;;;;;;;;;;5.40;99.90;;;;;;5016876;28;20408;-45
2022/11/11 03:48:21;;;;;;;;;;;5.40;99.90;;;;;;5023809;28;19914;-47
2022/11/11 03:50:47;;;;;;;;;;;5.40;99.90;;;;;;5014703;28;19924;-50
2022/11/11 03:53:13;;;;;;;;;;;5.40;99.90;;;;;;5020667;28;20161;-46
2022/11/11 03:55:39;;;;;;;;;;;5.40;99.90;;;;;;5021781;28;20040;-48
2022/11/11 03:58:04;;;;;;;;;;;5.40;99.90;;;;;;5018324;28;20311;-49
2022/11/11 04:00:30;;;;;;;;;;;5.30;99.90;;;;;;5008950;28;19923;-48
2022/11/11 04:11:40;;;;;;;;;;;5.30;99.90;;;;;;5025020;28;20350;-46
2022/11/11 04:16:53;;;;;;;;;;;5.30;99.90;;;;;;5013608;28;20002;-47
2022/11/11 04:22:03;;;;;;;;;;;5.20;99.90;;;;;;5009942;28;19943;-45
2022/11/11 04:27:14;;;;;;;;;;;5.20;99.90;;;;;;5009221;28;20400;-47
2022/11/11 04:29:40;;;;;;;;;;;5.20;99.90;;;;;;5007827;28;20372;-47
2022/11/11 04:34:55;;;;;;;;;;;5.20;99.90;;;;;;5015730;28;20266;-45
2022/11/11 04:37:21;;;;;;;;;;;5.20;99.90;;;;;;5009429;28;19968;-46
2022/11/11 04:42:31;;;;;;;;;;;5.20;99.90;;;;;;5008378;28;19980;-46
2022/11/11 04:47:52;;;;;;;;;;;5.20;99.90;;;;;;5013281;28;19916;-45
2022/11/11 04:50:17;;;;;;;;;;;5.20;99.90;;;;;;5012206;28;19971;-50
2022/11/11 04:52:43;;;;;;;;;;;5.20;99.90;;;;;;5008428;28;20400;-48
2022/11/11 04:57:52;;;;;;;;;;;5.20;99.90;;;;;;5019412;28;19917;-48
2022/11/11 05:00:18;;;;;;;;;;;5.20;99.90;;;;;;5019281;28;20332;-46
2022/11/11 05:05:28;;;;;;;;;;;5.20;99.90;;;;;;5021135;28;19921;-46
2022/11/11 05:10:38;;;;;;;;;;;5.30;99.90;;;;;;5007664;28;19924;-49
2022/11/11 05:21:28;;;;;;;;;;;5.30;99.90;;;;;;5006859;28;20449;-45
2022/11/11 05:26:38;;;;;;;;;;;5.30;99.90;;;;;;5012960;28;19924;-45
2022/11/11 05:29:03;;;;;;;;;;;5.20;99.90;;;;;;5023097;28;20374;-53
2022/11/11 05:31:29;;;;;;;;;;;5.30;99.90;;;;;;5017945;28;19930;-47
2022/11/11 05:33:54;;;;;;;;;;;5.20;99.90;;;;;;5022594;28;20368;-53
2022/11/11 05:36:20;;;;;;;;;;;5.30;99.90;;;;;;5009051;28;20011;-46
2022/11/11 05:38:45;;;;;;;;;;;5.20;99.90;;;;;;5013604;28;19948;-46
2022/11/11 05:41:11;;;;;;;;;;;5.20;99.90;;;;;;5011240;28;19918;-47
2022/11/11 05:43:37;;;;;;;;;;;5.20;99.90;;;;;;5021454;28;20287;-47
2022/11/11 05:46:03;;;;;;;;;;;5.20;99.90;;;;;;5031717;28;19913;-50
2022/11/11 05:48:29;;;;;;;;;;;5.20;99.90;;;;;;5017170;28;19921;-47
2022/11/11 05:50:56;;;;;;;;;;;5.20;99.90;;;;;;5011932;28;20276;-51
2022/11/11 05:53:22;;;;;;;;;;;5.20;99.90;;;;;;5011681;28;19910;-45
2022/11/11 05:55:51;;;;;;;;;;;5.20;99.90;;;;;;5023004;28;19909;-47
2022/11/11 05:58:17;;;;;;;;;;;5.20;99.90;;;;;;5026940;28;19917;-50
2022/11/11 06:00:43;;;;;;;;;;;5.20;99.90;;;;;;5015877;28;19917;-48
2022/11/11 06:03:08;;;;;;;;;;;5.20;99.90;;;;;;5015883;28;19921;-46
2022/11/11 06:05:37;;;;;;;;;;;5.20;99.90;;;;;;5015646;28;20364;-55
2022/11/11 06:08:03;;;;;;;;;;;5.20;99.90;;;;;;5027176;28;20267;-47
2022/11/11 06:10:31;;;;;;;;;;;5.30;99.90;;;;;;5031220;28;19924;-46
2022/11/11 06:13:12;;;;;;;;;;;5.20;99.90;;;;;;5031147;28;19979;-47
2022/11/11 06:15:38;;;;;;;;;;;5.20;99.90;;;;;;5031126;28;20060;-46
2022/11/11 06:18:04;;;;;;;;;;;5.30;99.90;;;;;;5031419;28;20442;-44
2022/11/11 06:20:30;;;;;;;;;;;5.30;99.90;;;;;;5031278;28;20252;-46
2022/11/11 06:22:56;;;;;;;;;;;5.30;99.90;;;;;;5031021;28;19917;-45
2022/11/11 06:28:13;;;;;;;;;;;5.30;99.90;;;;;;5031232;28;20292;-45
2022/11/11 06:30:39;;;;;;;;;;;5.30;99.90;;;;;;5015062;28;19928;-51
2022/11/11 06:33:06;;;;;;;;;;;5.30;99.90;;;;;;5022088;28;19909;-47
2022/11/11 06:35:32;;;;;;;;;;;5.40;99.90;;;;;;5011046;28;19953;-46
2022/11/11 06:37:58;;;;;;;;;;;5.40;99.90;;;;;;5010630;28;20024;-50
2022/11/11 06:40:23;;;;;;;;;;;5.50;99.90;;;;;;5010863;28;20008;-50
2022/11/11 06:42:49;;;;;;;;;;;5.50;99.90;;;;;;5010556;28;20329;-45
2022/11/11 06:45:14;;;;;;;;;;;5.50;99.90;;;;;;5010815;28;19914;-50
2022/11/11 06:47:41;;;;;;;;;;;5.60;99.90;;;;;;5010947;28;19965;-49
2022/11/11 06:50:06;;;;;;;;;;;5.60;99.90;;;;;;5010849;28;19914;-51
2022/11/11 06:52:32;;;;;;;;;;;5.60;99.90;;;;;;5010735;28;19932;-50
2022/11/11 06:54:57;;;;;;;;;;;5.60;99.90;;;;;;5010579;28;19910;-48
2022/11/11 06:57:23;;;;;;;;;;;5.60;99.90;;;;;;5018433;28;20330;-48
2022/11/11 06:59:48;;;;;;;;;;;5.70;99.90;;;;;;5019944;28;19921;-47
2022/11/11 07:02:14;;;;;;;;;;;5.70;99.90;;;;;;5009822;28;19925;-47
2022/11/11 07:04:39;;;;;;;;;;;5.80;99.90;;;;;;5010706;28;19918;-48
2022/11/11 07:07:05;;;;;;;;;;;5.90;99.90;;;;;;5010304;28;19976;-46
2022/11/11 07:09:30;;;;;;;;;;;5.90;99.90;;;;;;5010281;28;20402;-47
2022/11/11 07:11:56;;;;;;;;;;;6.00;99.90;;;;;;5010140;28;19921;-50
2022/11/11 07:14:21;;;;;;;;;;;6.00;99.90;;;;;;5010314;28;19960;-53
2022/11/11 07:16:47;;;;;;;;;;;6.10;99.90;;;;;;5011810;28;20356;-50
2022/11/11 07:19:12;;;;;;;;;;;6.20;99.90;;;;;;5010086;28;19909;-52
2022/11/11 07:21:38;;;;;;;;;;;6.20;99.90;;;;;;5009973;28;19913;-45
2022/11/11 07:24:03;;;;;;;;;;;6.40;99.90;;;;;;5020459;28;19918;-45
2022/11/11 07:26:29;;;;;;;;;;;6.40;99.90;;;;;;5029663;28;19917;-44
2022/11/11 07:28:54;;;;;;;;;;;6.60;99.90;;;;;;5029600;28;19913;-51
2022/11/11 07:31:20;;;;;;;;;;;6.60;99.90;;;;;;5022977;28;19913;-45
2022/11/11 07:33:45;;;;;;;;;;;6.60;99.90;;;;;;5020645;28;19936;-45
2022/11/11 07:36:11;;;;;;;;;;;6.70;99.90;;;;;;5007778;28;19921;-48
2022/11/11 07:38:36;;;;;;;;;;;6.80;99.90;;;;;;5009841;28;20354;-46
2022/11/11 07:41:02;;;;;;;;;;;7.00;99.90;;;;;;5009849;28;20323;-49
2022/11/11 07:43:27;;;;;;;;;;;7.20;99.90;;;;;;5009564;28;19913;-44
2022/11/11 07:45:53;;;;;;;;;;;7.40;99.90;;;;;;5009701;28;20025;-51
2022/11/11 07:48:18;;;;;;;;;;;7.60;99.90;;;;;;5009596;28;20685;-50
2022/11/11 07:50:44;;;;;;;;;;;7.90;99.90;;;;;;5008957;28;19913;-45
2022/11/11 07:53:09;;;;;;;;;;;8.30;99.90;;;;;;5009623;28;19913;-45
2022/11/11 07:55:35;;;;;;;;;;;8.30;99.90;;;;;;5009429;28;19985;-49
2022/11/11 07:58:01;;;;;;;;;;;8.50;99.90;;;;;;5022227;28;19910;-48
2022/11/11 08:00:26;;;;;;;;;;;8.70;99.90;;;;;;5016196;28;19921;-47
2022/11/11 08:02:52;;;;;;;;;;;9.00;99.90;;;;;;5019396;28;19918;-47
2022/11/11 08:05:17;;;;;;;;;;;9.20;99.90;;;;;;5020657;28;19924;-44
2022/11/11 08:07:43;;;;;;;;;;;9.40;99.90;;;;;;5009432;28;19921;-48
2022/11/11 08:10:10;;;;;;;;;;;9.40;99.90;;;;;;5009054;28;20434;-47
2022/11/11 08:15:20;;;;;;;;;;;9.50;99.90;;;;;;5009874;28;19920;-48
2022/11/11 08:17:46;;;;;;;;;;;9.60;99.90;;;;;;5010600;28;19917;-47
2022/11/11 08:20:12;;;;;;;;;;;9.80;99.90;;;;;;5009500;28;20004;-48
2022/11/11 08:22:38;;;;;;;;;;;10.00;99.90;;;;;;5009065;28;19913;-46
2022/11/11 08:25:07;;;;;;;;;;;10.30;99.90;;;;;;5008952;28;19918;-48
2022/11/11 08:27:33;;;;;;;;;;;10.60;99.90;;;;;;5009301;28;20052;-45
2022/11/11 08:29:58;;;;;;;;;;;10.60;99.90;;;;;;5009187;28;20011;-54
2022/11/11 08:32:24;;;;;;;;;;;10.60;99.90;;;;;;5020204;28;19925;-46
2022/11/11 08:34:49;;;;;;;;;;;10.60;99.90;;;;;;5009075;28;19921;-49
2022/11/11 08:37:15;;;;;;;;;;;10.50;99.90;;;;;;5008981;28;19959;-46
2022/11/11 08:39:40;;;;;;;;;;;10.30;99.90;;;;;;5009068;28;19913;-45
2022/11/11 08:42:06;;;;;;;;;;;10.20;99.90;;;;;;5009055;28;19920;-49
2022/11/11 08:44:31;;;;;;;;;;;10.10;99.90;;;;;;5013947;28;19956;-46
2022/11/11 08:46:57;;;;;;;;;;;10.20;99.90;;;;;;5013088;28;20000;-51
2022/11/11 08:49:22;;;;;;;;;;;10.10;99.90;;;;;;5009163;28;19913;-46
2022/11/11 08:51:48;;;;;;;;;;;10.00;99.90;;;;;;5008956;28;19909;-49
2022/11/11 08:54:13;;;;;;;;;;;9.80;99.90;;;;;;5013624;28;19913;-47
2022/11/11 08:56:39;;;;;;;;;;;9.70;99.90;;;;;;5024499;28;19917;-47
2022/11/11 08:59:05;;;;;;;;;;;9.60;99.90;;;;;;5019674;28;19934;-48
2022/11/11 09:01:30;;;;;;;;;;;9.90;99.90;;;;;;5009334;28;20018;-48
2022/11/11 09:03:56;;;;;;;;;;;10.00;99.90;;;;;;5013372;28;19960;-45
2022/11/11 09:06:22;;;;;;;;;;;10.20;99.90;;;;;;5012774;28;19917;-49
2022/11/11 09:08:47;;;;;;;;;;;10.40;99.90;;;;;;5013426;28;19909;-47
2022/11/11 09:11:13;;;;;;;;;;;10.60;99.90;;;;;;5012456;28;20451;-45
2022/11/11 09:13:39;;;;;;;;;;;10.70;99.90;;;;;;5012644;28;20423;-46
2022/11/11 09:16:05;;;;;;;;;;;10.80;99.90;;;;;;5012572;28;19914;-53
2022/11/11 09:18:30;;;;;;;;;;;11.10;99.90;;;;;;5012594;28;19916;-48
2022/11/11 09:20:59;;;;;;;;;;;11.50;99.90;;;;;;5012545;28;19910;-47
2022/11/11 09:23:25;;;;;;;;;;;11.80;99.90;;;;;;5012812;28;19922;-47
2022/11/11 09:25:51;;;;;;;;;;;12.20;99.90;;;;;;5016720;28;20001;-47
2022/11/11 09:28:16;;;;;;;;;;;12.40;99.90;;;;;;5012568;28;20352;-45
2022/11/11 09:30:42;;;;;;;;;;;12.40;99.90;;;;;;5012584;28;19956;-47
2022/11/11 09:33:08;;;;;;;;;;;12.70;99.90;;;;;;5023895;28;19916;-48
2022/11/11 09:35:35;;;;;;;;;;;13.10;99.90;;;;;;5012283;28;20352;-47
2022/11/11 09:38:00;;;;;;;;;;;13.60;99.90;;;;;;5012354;28;20000;-46
2022/11/11 09:40:33;;;;;;;;;;;13.60;99.90;;;;;;5012327;28;20000;-50
2022/11/11 09:43:17;;;;;;;;;;;13.90;99.90;;;;;;5012153;28;20343;-50
2022/11/11 09:45:51;;;;;;;;;;;14.00;99.90;;;;;;5011924;28;20411;-47
2022/11/11 09:48:33;;;;;;;;;;;14.00;99.90;;;;;;5012164;28;19913;-54
2022/11/11 09:51:00;;;;;;;;;;;14.10;99.90;;;;;;5012144;28;20410;-50
2022/11/11 09:53:37;;;;;;;;;;;14.10;99.90;;;;;;5012674;28;20418;-46
2022/11/11 09:56:08;;;;;;;;;;;13.70;99.90;;;;;;5011753;28;19940;-46
2022/11/11 09:58:36;;;;;;;;;;;13.60;99.90;;;;;;5024530;28;19913;-47
2022/11/11 10:01:07;;;;;;;;;;;13.60;99.90;;;;;;5012115;28;20386;-46
2022/11/11 10:03:37;;;;;;;;;;;13.60;99.90;;;;;;5011623;28;19920;-47
2022/11/11 10:06:06;;;;;;;;;;;13.30;99.90;;;;;;5011643;28;19909;-47
2022/11/11 10:08:38;;;;;;;;;;;13.40;99.90;;;;;;5011911;28;19909;-45
2022/11/11 10:11:09;;;;;;;;;;;13.20;99.90;;;;;;5011217;28;20015;-49
2022/11/11 10:13:36;;;;;;;;;;;13.00;99.90;;;;;;5010875;28;19920;-45
2022/11/11 10:16:20;;;;;;;;;;;12.70;99.90;;;;;;5011416;28;19995;-47
2022/11/11 10:18:51;;;;;;;;;;;12.50;99.90;;;;;;5011799;28;19916;-45
2022/11/11 10:21:23;;;;;;;;;;;12.30;99.90;;;;;;5011292;28;20049;-46
2022/11/11 10:23:51;;;;;;;;;;;12.30;99.90;;;;;;5011065;28;20328;-46
2022/11/11 10:26:19;;;;;;;;;;;12.30;99.90;;;;;;5011403;28;20352;-51
2022/11/11 10:28:44;;;;;;;;;;;12.20;99.90;;;;;;5011329;28;20726;-44
2022/11/11 10:31:13;;;;;;;;;;;12.30;99.90;;;;;;5015360;28;20219;-46
2022/11/11 10:33:46;;;;;;;;;;;12.50;99.90;;;;;;5018003;28;19918;-49
2022/11/11 10:36:18;;;;;;;;;;;12.70;99.90;;;;;;5011224;28;19911;-46
2022/11/11 10:38:55;;;;;;;;;;;12.90;99.90;;;;;;5011190;28;20277;-47
2022/11/11 10:41:56;;;;;;;;;;;13.00;99.90;;;;;;5011308;28;20288;-46
2022/11/11 10:44:26;;;;;;;;;;;13.30;99.90;;;;;;5008310;28;20502;-47
2022/11/11 10:47:05;;;;;;;;;;;13.50;99.90;;;;;;5025284;28;20000;-45
2022/11/11 10:49:33;;;;;;;;;;;13.50;99.90;;;;;;5030758;28;20004;-52
2022/11/11 10:52:17;;;;;;;;;;;13.40;99.90;;;;;;5013287;28;19922;-46
2022/11/11 10:54:45;;;;;;;;;;;13.40;99.90;;;;;;5010261;28;19955;-48
2022/11/11 10:57:18;;;;;;;;;;;13.20;99.90;;;;;;5016767;28;19909;-52
2022/11/11 10:59:48;;;;;;;;;;;13.00;99.90;;;;;;5030725;28;19952;-50
2022/11/11 11:02:16;;;;;;;;;;;13.30;99.90;;;;;;5030875;28;19917;-47
2022/11/11 11:04:47;;;;;;;;;;;13.40;99.90;;;;;;5015617;28;19914;-45
2022/11/11 11:07:16;;;;;;;;;;;13.50;99.90;;;;;;5030511;28;19913;-53
2022/11/11 11:09:44;;;;;;;;;;;13.80;99.90;;;;;;5030215;28;19913;-47
2022/11/11 11:12:14;;;;;;;;;;;14.30;99.90;;;;;;5030145;28;20291;-47
2022/11/11 11:14:44;;;;;;;;;;;14.70;99.90;;;;;;5030102;28;19913;-47
2022/11/11 11:17:17;;;;;;;;;;;15.10;99.90;;;;;;5030119;28;19913;-48
2022/11/11 11:19:43;;;;;;;;;;;15.60;99.90;;;;;;5029958;28;19916;-50
2022/11/11 11:22:09;;;;;;;;;;;15.90;99.90;;;;;;5013422;28;19913;-47
2022/11/11 11:24:38;;;;;;;;;;;16.10;99.20;;;;;;5027484;28;19947;-46
2022/11/11 11:27:07;;;;;;;;;;;16.00;96.90;;;;;;5029999;28;19961;-47
2022/11/11 11:29:33;;;;;;;;;;;16.10;97.70;;;;;;5010450;28;19921;-46
2022/11/11 11:32:11;;;;;;;;;;;16.30;97.50;;;;;;5020403;28;19913;-51
2022/11/11 11:34:55;;;;;;;;;;;16.20;95.50;;;;;;5016538;28;19916;-49
2022/11/11 11:37:22;;;;;;;;;;;15.70;96.40;;;;;;5030017;28;19920;-47
2022/11/11 11:39:48;;;;;;;;;;;16.20;96.90;;;;;;5029943;28;20011;-48
2022/11/11 11:42:28;;;;;;;;;;;16.50;96.00;;;;;;5011854;28;19917;-48
2022/11/11 11:44:53;;;;;;;;;;;17.10;94.90;;;;;;5029426;28;19975;-50
2022/11/11 11:47:28;;;;;;;;;;;17.30;93.20;;;;;;5029508;28;20338;-45
2022/11/11 11:49:56;;;;;;;;;;;17.30;92.00;;;;;;5030038;28;20478;-45
2022/11/11 11:52:31;;;;;;;;;;;17.20;92.60;;;;;;5017104;28;19976;-50
2022/11/11 11:55:11;;;;;;;;;;;17.30;91.90;;;;;;5025816;28;19917;-49
2022/11/11 11:57:45;;;;;;;;;;;17.30;91.90;;;;;;5019678;28;19913;-46
2022/11/11 12:00:28;;;;;;;;;;;17.30;91.30;;;;;;5010215;28;19918;-48
2022/11/11 12:03:02;;;;;;;;;;;17.40;92.00;;;;;;5009567;28;20319;-49
2022/11/11 12:05:45;;;;;;;;;;;17.50;91.70;;;;;;5013165;28;19914;-54
2022/11/11 12:08:17;;;;;;;;;;;17.30;92.20;;;;;;5026824;28;19914;-46
2022/11/11 12:10:45;;;;;;;;;;;17.60;90.80;;;;;;5029084;28;19920;-46
2022/11/11 12:13:19;;;;;;;;;;;17.50;90.10;;;;;;5029135;28;20367;-48
2022/11/11 12:15:57;;;;;;;;;;;17.50;90.00;;;;;;5028786;28;19920;-49
2022/11/11 12:18:34;;;;;;;;;;;17.20;91.10;;;;;;5029112;28;19913;-47
2022/11/11 12:21:13;;;;;;;;;;;17.10;92.00;;;;;;5020228;28;19918;-47
2022/11/11 12:23:45;;;;;;;;;;;17.40;92.40;;;;;;5008939;28;20142;-46
2022/11/11 12:26:17;;;;;;;;;;;17.60;92.20;;;;;;5010558;28;19917;-47
2022/11/11 12:28:45;;;;;;;;;;;17.90;91.60;;;;;;5019827;28;20306;-49
2022/11/11 12:31:13;;;;;;;;;;;17.90;90.60;;;;;;5011696;28;20025;-49
2022/11/11 12:33:52;;;;;;;;;;;18.10;88.20;;;;;;5012401;28;19921;-52
2022/11/11 12:36:18;;;;;;;;;;;18.40;87.40;;;;;;5008608;28;19910;-51
2022/11/11 12:38:56;;;;;;;;;;;18.20;86.20;;;;;;5009179;28;20000;-50
2022/11/11 12:41:24;;;;;;;;;;;18.20;87.00;;;;;;5009215;28;19931;-47
2022/11/11 12:44:09;;;;;;;;;;;17.90;86.80;;;;;;5009538;28;19918;-47
2022/11/11 12:46:53;;;;;;;;;;;17.80;87.80;;;;;;5014080;28;19914;-48
2022/11/11 12:49:33;;;;;;;;;;;17.60;90.20;;;;;;5009086;28;19922;-45
2022/11/11 12:51:59;;;;;;;;;;;17.20;90.20;;;;;;5008886;28;19917;-44
2022/11/11 12:54:30;;;;;;;;;;;16.80;91.60;;;;;;5008860;28;20284;-52
2022/11/11 12:57:05;;;;;;;;;;;16.60;92.80;;;;;;5012763;28;19913;-45
2022/11/11 12:59:39;;;;;;;;;;;16.50;93.30;;;;;;5011033;28;19960;-47
2022/11/11 13:02:20;;;;;;;;;;;16.00;94.20;;;;;;5009158;28;19971;-50
2022/11/11 13:04:52;;;;;;;;;;;16.00;95.90;;;;;;5008843;28;20378;-48
2022/11/11 13:07:32;;;;;;;;;;;15.90;97.00;;;;;;5007998;28;19913;-46
2022/11/11 13:10:03;;;;;;;;;;;15.90;97.80;;;;;;5014499;28;20402;-48
2022/11/11 13:12:34;;;;;;;;;;;15.80;98.70;;;;;;5028432;28;19985;-47
2022/11/11 13:15:09;;;;;;;;;;;15.70;99.00;;;;;;5028632;28;19913;-47
2022/11/11 13:17:36;;;;;;;;;;;15.80;98.80;;;;;;5016325;28;19924;-52
2022/11/11 13:20:02;;;;;;;;;;;15.80;98.40;;;;;;5008053;28;19952;-45
2022/11/11 13:22:29;;;;;;;;;;;15.60;98.00;;;;;;5009849;28;19955;-50
2022/11/11 13:24:56;;;;;;;;;;;15.50;99.20;;;;;;5009141;28;19922;-48
2022/11/11 13:27:21;;;;;;;;;;;15.30;99.90;;;;;;5008991;28;19997;-49
2022/11/11 13:30:02;;;;;;;;;;;15.10;99.90;;;;;;5008649;28;19983;-48
2022/11/11 13:32:31;;;;;;;;;;;15.00;99.90;;;;;;5024516;28;19921;-45
2022/11/11 13:34:57;;;;;;;;;;;14.80;99.90;;;;;;5028615;28;19909;-51
2022/11/11 13:37:27;;;;;;;;;;;14.70;99.90;;;;;;5028661;28;19913;-45
2022/11/11 13:39:57;;;;;;;;;;;14.50;99.90;;;;;;5028503;28;19909;-52
2022/11/11 13:42:25;;;;;;;;;;;14.50;99.90;;;;;;5025432;28;19917;-45
2022/11/11 13:44:52;;;;;;;;;;;14.40;99.90;;;;;;5009565;28;19928;-50
2022/11/11 13:47:20;;;;;;;;;;;14.20;99.90;;;;;;5008349;28;19910;-47
2022/11/11 13:49:51;;;;;;;;;;;14.30;99.90;;;;;;5013141;28;19914;-46
2022/11/11 13:52:28;;;;;;;;;;;14.20;99.90;;;;;;5011240;28;19913;-47
2022/11/11 13:54:58;;;;;;;;;;;14.10;99.90;;;;;;5012686;28;20445;-50
2022/11/11 13:57:26;;;;;;;;;;;14.00;99.90;;;;;;5024966;28;19909;-46
2022/11/11 14:00:03;;;;;;;;;;;13.90;99.90;;;;;;5017849;28;19917;-49
2022/11/11 14:02:30;;;;;;;;;;;13.80;99.90;;;;;;5020130;28;20008;-48
2022/11/11 14:05:02;;;;;;;;;;;13.80;99.90;;;;;;5031459;28;20474;-47
2022/11/11 14:07:43;;;;;;;;;;;13.60;99.90;;;;;;5026701;28;19917;-46
2022/11/11 14:10:17;;;;;;;;;;;13.60;99.90;;;;;;5031406;28;19967;-47
2022/11/11 14:12:47;;;;;;;;;;;13.40;99.90;;;;;;5031249;28;19964;-48
2022/11/11 14:15:31;;;;;;;;;;;13.30;99.90;;;;;;5023349;28;19917;-50
2022/11/11 14:17:57;;;;;;;;;;;13.30;99.90;;;;;;5011317;28;19920;-56
2022/11/11 14:20:31;;;;;;;;;;;13.10;99.90;;;;;;5021340;28;19914;-44
2022/11/11 14:23:15;;;;;;;;;;;13.00;99.90;;;;;;5030084;28;19931;-44
2022/11/11 14:25:41;;;;;;;;;;;12.90;99.90;;;;;;5018275;28;20008;-46
2022/11/11 14:28:25;;;;;;;;;;;12.80;99.90;;;;;;5011179;28;20020;-47
2022/11/11 14:30:50;;;;;;;;;;;12.80;99.90;;;;;;5019894;28;20004;-51
2022/11/11 14:33:19;;;;;;;;;;;12.70;99.90;;;;;;5010917;28;20320;-46
2022/11/11 14:36:14;;;;;;;;;;;12.70;99.90;;;;;;5011756;28;20287;-47
2022/11/11 14:38:52;;;;;;;;;;;12.60;99.90;;;;;;4949531;28;19958;-45
2022/11/11 14:41:36;;;;;;;;;;;12.50;99.90;;;;;;5009342;28;20371;-45
2022/11/11 14:44:20;;;;;;;;;;;12.40;99.90;;;;;;5018185;28;19929;-46
2022/11/11 14:47:01;;;;;;;;;;;12.20;99.90;;;;;;5020638;28;20757;-46
2022/11/11 14:49:44;;;;;;;;;;;12.00;99.90;;;;;;5021203;28;20007;-49
2022/11/11 14:52:25;;;;;;;;;;;12.00;99.90;;;;;;5008787;28;19913;-48
2022/11/11 14:54:51;;;;;;;;;;;12.00;99.90;;;;;;5011117;28;19925;-53
2022/11/11 14:57:20;;;;;;;;;;;11.90;99.90;;;;;;5014920;28;19918;-47
2022/11/11 14:59:46;;;;;;;;;;;11.80;99.90;;;;;;5005516;28;19922;-46
2022/11/11 15:02:19;;;;;;;;;;;11.70;99.90;;;;;;5013335;28;19948;-48
2022/11/11 15:04:45;;;;;;;;;;;11.70;99.90;;;;;;5012985;28;19928;-53
2022/11/11 15:07:20;;;;;;;;;;;11.70;99.90;;;;;;5002086;28;20450;-47
2022/11/11 15:10:15;;;;;;;;;;;11.70;99.90;;;;;;5011041;28;19917;-49
2022/11/11 15:12:44;;;;;;;;;;;11.60;99.90;;;;;;4993975;28;19936;-48
2022/11/11 15:15:26;;;;;;;;;;;11.50;99.90;;;;;;5020359;28;19920;-50
2022/11/11 15:17:52;;;;;;;;;;;11.40;99.90;;;;;;5006677;28;19971;-49
2022/11/11 15:20:34;;;;;;;;;;;11.40;99.90;;;;;;5006972;28;19996;-51
2022/11/11 15:23:03;;;;;;;;;;;11.30;99.90;;;;;;5026107;28;19912;-47
2022/11/11 15:25:47;;;;;;;;;;;11.20;99.90;;;;;;5021564;28;19952;-44
2022/11/11 15:28:12;;;;;;;;;;;11.10;99.90;;;;;;5002869;28;19972;-50
2022/11/11 15:30:47;;;;;;;;;;;11.00;99.90;;;;;;5004303;28;19917;-48
2022/11/11 15:33:13;;;;;;;;;;;10.90;99.90;;;;;;5019318;28;19918;-49
2022/11/11 15:35:49;;;;;;;;;;;10.90;99.90;;;;;;5006064;28;20390;-48
2022/11/11 15:38:16;;;;;;;;;;;10.80;99.90;;;;;;5005029;28;19921;-47
2022/11/11 15:40:43;;;;;;;;;;;10.90;99.90;;;;;;5004461;28;19913;-46
2022/11/11 15:43:28;;;;;;;;;;;10.70;99.90;;;;;;5000306;28;19921;-44
2022/11/11 15:45:55;;;;;;;;;;;10.70;99.90;;;;;;5004198;28;19929;-47
2022/11/11 15:48:26;;;;;;;;;;;10.60;99.90;;;;;;5005827;28;20459;-55
2022/11/11 15:50:51;;;;;;;;;;;10.60;99.90;;;;;;5005621;28;19913;-51